createdAt,value
2023-09-18T00:02:07.130Z,15.67
2023-09-18T00:04:33.866Z,15.70
2023-09-18T00:07:00.708Z,15.82
2023-09-18T00:09:27.495Z,15.80
2023-09-18T00:11:54.243Z,15.70
2023-09-18T00:14:21.003Z,15.71
2023-09-18T00:16:58.241Z,15.67
2023-09-18T00:19:25.743Z,15.62
2023-09-18T00:21:52.574Z,15.57
2023-09-18T00:24:19.310Z,15.67
2023-09-18T00:26:46.166Z,15.82
2023-09-18T00:29:12.973Z,15.66
2023-09-18T00:31:39.758Z,15.62
2023-09-18T00:34:07.933Z,15.62
2023-09-18T00:36:34.749Z,15.49
2023-09-18T00:39:01.453Z,15.36
2023-09-18T00:41:28.205Z,15.29
2023-09-18T00:43:55.117Z,15.25
2023-09-18T00:46:22.106Z,15.26
2023-09-18T00:48:48.805Z,15.26
2023-09-18T00:51:17.011Z,15.12
2023-09-18T00:53:44.148Z,15.15
2023-09-18T00:56:10.934Z,15.26
2023-09-18T00:58:37.855Z,15.19
2023-09-18T01:01:04.692Z,15.22
2023-09-18T01:03:31.566Z,15.31
2023-09-18T01:05:58.405Z,15.24
2023-09-18T01:08:26.596Z,15.14
2023-09-18T01:10:57.319Z,15.12
2023-09-18T01:13:27.166Z,15.43
2023-09-18T01:15:55.812Z,15.34
2023-09-18T01:18:22.592Z,15.21
2023-09-18T01:20:49.368Z,15.40
2023-09-18T01:23:17.965Z,15.40
2023-09-18T01:25:44.728Z,15.22
2023-09-18T01:28:11.473Z,15.22
2023-09-18T01:30:38.208Z,15.14
2023-09-18T01:33:05.024Z,15.05
2023-09-18T01:35:31.820Z,15.01
2023-09-18T01:37:58.670Z,15.21
2023-09-18T01:40:26.925Z,15.24
2023-09-18T01:42:53.802Z,14.98
2023-09-18T01:45:20.567Z,14.98
2023-09-18T01:47:47.387Z,15.04
2023-09-18T01:50:14.202Z,15.25
2023-09-18T01:52:40.974Z,15.02
2023-09-18T01:55:08.786Z,14.98
2023-09-18T01:57:36.918Z,15.02
2023-09-18T02:00:04.233Z,15.09
2023-09-18T02:02:51.969Z,15.04
2023-09-18T02:05:18.495Z,15.01
2023-09-18T02:07:45.364Z,15.05
2023-09-18T02:10:12.138Z,14.92
2023-09-18T02:12:40.240Z,15.07
2023-09-18T02:15:08.109Z,14.95
2023-09-18T02:17:34.947Z,14.95
2023-09-18T02:20:01.893Z,14.91
2023-09-18T02:22:28.690Z,14.94
2023-09-18T02:24:55.424Z,14.80
2023-09-18T02:27:22.146Z,14.87
2023-09-18T02:29:50.248Z,14.80
2023-09-18T02:32:17.018Z,14.85
2023-09-18T02:34:43.893Z,14.94
2023-09-18T02:37:10.785Z,15.12
2023-09-18T02:39:37.536Z,15.08
2023-09-18T02:42:04.661Z,14.94
2023-09-18T02:44:31.483Z,14.87
2023-09-18T02:46:59.608Z,14.83
2023-09-18T02:49:26.445Z,15.01
2023-09-18T02:51:53.147Z,14.90
2023-09-18T02:54:19.857Z,14.92
2023-09-18T02:56:46.632Z,14.92
2023-09-18T02:59:13.433Z,15.07
2023-09-18T03:01:40.247Z,15.08
2023-09-18T03:04:08.526Z,15.09
2023-09-18T03:06:35.365Z,14.94
2023-09-18T03:09:02.094Z,15.05
2023-09-18T03:11:28.868Z,14.90
2023-09-18T03:13:55.566Z,14.84
2023-09-18T03:16:22.329Z,14.81
2023-09-18T03:18:49.068Z,14.88
2023-09-18T03:21:17.178Z,14.87
2023-09-18T03:23:43.902Z,14.87
2023-09-18T03:26:10.711Z,14.95
2023-09-18T03:28:37.498Z,14.97
2023-09-18T03:31:04.244Z,15.07
2023-09-18T03:33:31.063Z,14.99
2023-09-18T03:35:57.855Z,15.09
2023-09-18T03:38:26.130Z,15.02
2023-09-18T03:40:52.902Z,14.99
2023-09-18T03:43:19.614Z,14.92
2023-09-18T03:45:46.392Z,14.85
2023-09-18T03:48:13.233Z,14.76
2023-09-18T03:50:40.281Z,14.80
2023-09-18T03:53:08.328Z,14.84
2023-09-18T03:55:36.710Z,14.88
2023-09-18T03:58:03.752Z,14.71
2023-09-18T04:00:30.512Z,14.88
2023-09-18T04:02:57.367Z,14.91
2023-09-18T04:05:24.342Z,14.99
2023-09-18T04:07:51.134Z,14.90
2023-09-18T04:10:17.975Z,14.87
2023-09-18T04:12:46.345Z,14.81
2023-09-18T04:15:14.190Z,14.81
2023-09-18T04:17:41.026Z,14.78
2023-09-18T04:20:08.819Z,14.77
2023-09-18T04:22:35.578Z,14.84
2023-09-18T04:25:02.411Z,14.84
2023-09-18T04:27:29.219Z,14.91
2023-09-18T04:29:57.358Z,14.81
2023-09-18T04:32:24.241Z,14.98
2023-09-18T04:34:51.016Z,14.97
2023-09-18T04:37:17.746Z,15.05
2023-09-18T04:39:44.555Z,15.07
2023-09-18T04:42:11.344Z,15.15
2023-09-18T04:44:38.123Z,15.35
2023-09-18T04:47:06.343Z,15.31
2023-09-18T04:49:33.095Z,15.40
2023-09-18T04:51:59.846Z,15.55
2023-09-18T04:54:26.593Z,15.62
2023-09-18T04:56:54.261Z,15.76
2023-09-18T04:59:21.058Z,15.94
2023-09-18T05:01:47.788Z,16.22
2023-09-18T05:04:15.989Z,16.56
2023-09-18T05:06:42.683Z,16.86
2023-09-18T05:09:09.535Z,17.13
2023-09-18T05:11:36.312Z,16.99
2023-09-18T05:14:03.169Z,17.20
2023-09-18T05:16:30.067Z,17.34
2023-09-18T05:18:56.844Z,17.72
2023-09-18T05:21:24.968Z,17.82
2023-09-18T05:23:52.429Z,18.17
2023-09-18T05:26:19.339Z,17.67
2023-09-18T05:28:46.081Z,17.71
2023-09-18T05:31:12.974Z,17.83
2023-09-18T05:33:39.708Z,17.69
2023-09-18T05:36:06.457Z,18.07
2023-09-18T05:38:34.666Z,18.37
2023-09-18T05:41:01.379Z,18.58
2023-09-18T05:43:28.166Z,18.67
2023-09-18T05:45:55.402Z,18.68
2023-09-18T05:48:22.128Z,19.43
2023-09-18T05:50:49.014Z,18.44
2023-09-18T05:53:15.942Z,19.34
2023-09-18T05:55:44.122Z,19.73
2023-09-18T05:58:10.857Z,19.43
2023-09-18T06:00:37.687Z,19.46
2023-09-18T06:03:04.893Z,19.80
2023-09-18T06:05:31.742Z,19.51
2023-09-18T06:07:58.988Z,19.91
2023-09-18T06:10:25.735Z,19.98
2023-09-18T06:12:53.870Z,19.97
2023-09-18T06:15:20.654Z,20.87
2023-09-18T06:17:47.509Z,21.21
2023-09-18T06:20:15.858Z,20.87
2023-09-18T06:22:42.649Z,21.28
2023-09-18T06:25:09.628Z,21.14
2023-09-18T06:27:36.392Z,21.94
2023-09-18T06:30:05.208Z,21.12
2023-09-18T06:32:32.002Z,22.01
2023-09-18T06:34:58.796Z,23.94
2023-09-18T06:37:25.620Z,22.34
2023-09-18T06:39:52.400Z,22.16
2023-09-18T06:42:19.216Z,23.50
2023-09-18T06:44:46.146Z,22.62
2023-09-18T06:47:14.375Z,22.52
2023-09-18T06:49:41.241Z,22.68
2023-09-18T06:52:08.059Z,23.10
2023-09-18T06:54:34.764Z,22.68
2023-09-18T06:57:01.498Z,23.46
2023-09-18T06:59:30.750Z,22.84
2023-09-18T07:01:58.635Z,22.59
2023-09-18T07:04:26.936Z,21.79
2023-09-18T07:06:53.726Z,22.82
2023-09-18T07:09:20.540Z,23.70
2023-09-18T07:11:47.351Z,23.03
2023-09-18T07:14:14.171Z,22.85
2023-09-18T07:16:41.004Z,25.42
2023-09-18T07:19:07.712Z,25.29
2023-09-18T07:21:35.850Z,25.32
2023-09-18T07:24:02.584Z,26.61
2023-09-18T07:26:29.310Z,23.55
2023-09-18T07:28:56.296Z,24.00
2023-09-18T07:31:23.318Z,24.02
2023-09-18T07:33:50.096Z,24.25
2023-09-18T07:36:16.930Z,24.42
2023-09-18T07:38:45.932Z,25.21
2023-09-18T07:41:12.728Z,23.97
2023-09-18T07:43:39.594Z,24.40
2023-09-18T07:46:06.424Z,24.44
2023-09-18T07:48:33.201Z,24.00
2023-09-18T07:51:00.017Z,24.63
2023-09-18T07:53:26.748Z,24.76
2023-09-18T07:55:58.267Z,24.73
2023-09-18T07:58:24.995Z,25.21
2023-09-18T08:00:51.726Z,25.55
2023-09-18T08:03:18.577Z,25.22
2023-09-18T08:05:45.347Z,24.37
2023-09-18T08:08:12.218Z,27.78
2023-09-18T08:10:38.993Z,26.08
2023-09-18T08:13:07.166Z,27.51
2023-09-18T08:15:33.928Z,27.50
2023-09-18T08:18:00.853Z,26.67
2023-09-18T08:20:27.898Z,25.89
2023-09-18T08:22:57.435Z,26.58
2023-09-18T08:25:25.192Z,26.83
2023-09-18T08:27:51.981Z,27.78
2023-09-18T08:30:20.359Z,25.61
2023-09-18T08:32:47.219Z,27.10
2023-09-18T08:35:14.212Z,27.47
2023-09-18T08:37:41.356Z,26.62
2023-09-18T08:40:11.439Z,27.65
2023-09-18T08:42:42.394Z,26.08
2023-09-18T08:45:10.579Z,27.19
2023-09-18T08:47:38.859Z,27.38
2023-09-18T08:50:06.670Z,27.96
2023-09-18T08:52:33.438Z,26.25
2023-09-18T08:55:00.229Z,27.03
2023-09-18T08:57:27.081Z,28.19
2023-09-18T08:59:54.000Z,27.34
2023-09-18T09:02:20.761Z,28.64
2023-09-18T09:04:50.449Z,27.98
2023-09-18T09:07:19.330Z,28.40
2023-09-18T09:09:46.067Z,27.26
2023-09-18T09:12:12.795Z,29.42
2023-09-18T09:14:39.650Z,28.84
2023-09-18T09:17:06.419Z,29.48
2023-09-18T09:19:33.764Z,29.79
2023-09-18T09:22:02.057Z,29.66
2023-09-18T09:24:39.308Z,31.42
2023-09-18T09:27:06.103Z,28.74
2023-09-18T09:29:32.848Z,28.29
2023-09-18T09:32:14.454Z,31.29
2023-09-18T09:34:42.248Z,31.04
2023-09-18T09:37:10.595Z,29.36
2023-09-18T09:39:47.600Z,29.31
2023-09-18T09:42:14.332Z,30.31
2023-09-18T09:44:41.159Z,28.47
2023-09-18T09:47:07.947Z,29.26
2023-09-18T09:49:41.424Z,30.15
2023-09-18T09:52:11.763Z,28.86
2023-09-18T09:54:38.552Z,29.76
2023-09-18T09:57:05.677Z,30.49
2023-09-18T09:59:32.540Z,29.31
2023-09-18T10:01:59.304Z,29.91
2023-09-18T10:04:26.387Z,28.29
2023-09-18T10:06:53.787Z,28.95
2023-09-18T10:09:22.241Z,29.14
2023-09-18T10:11:51.027Z,30.73
2023-09-18T10:14:19.104Z,28.10
2023-09-18T10:16:47.055Z,28.33
2023-09-18T10:19:18.275Z,31.13
2023-09-18T10:21:47.674Z,29.60
2023-09-18T10:24:18.492Z,29.83
2023-09-18T10:26:50.533Z,30.84
2023-09-18T10:29:17.259Z,30.31
2023-09-18T10:31:44.173Z,31.20
2023-09-18T10:34:10.971Z,30.55
2023-09-18T10:36:37.684Z,29.84
2023-09-18T10:39:04.800Z,29.86
2023-09-18T10:41:31.548Z,29.83
2023-09-18T10:43:59.686Z,30.42
2023-09-18T10:46:26.676Z,30.34
2023-09-18T10:48:53.670Z,29.73
2023-09-18T10:51:21.236Z,29.42
2023-09-18T10:53:48.646Z,29.73
2023-09-18T10:56:16.058Z,30.24
2023-09-18T10:58:42.964Z,28.98
2023-09-18T11:01:12.434Z,31.06
2023-09-18T11:03:39.863Z,30.49
2023-09-18T11:06:07.490Z,30.52
2023-09-18T11:08:34.944Z,31.27
2023-09-18T11:11:07.118Z,29.94
2023-09-18T11:13:37.059Z,29.63
2023-09-18T11:16:14.083Z,29.59
2023-09-18T11:18:42.420Z,31.24
2023-09-18T11:21:10.114Z,30.92
2023-09-18T11:23:37.239Z,30.48
2023-09-18T11:26:05.204Z,29.83
2023-09-18T11:28:34.798Z,30.29
2023-09-18T11:31:02.098Z,29.38
2023-09-18T11:33:35.195Z,30.80
2023-09-18T11:36:06.225Z,30.49
2023-09-18T11:38:33.249Z,29.46
2023-09-18T11:41:00.243Z,30.68
2023-09-18T11:43:27.524Z,29.70
2023-09-18T11:45:55.158Z,29.67
2023-09-18T11:48:22.077Z,29.40
2023-09-18T11:50:49.046Z,29.22
2023-09-18T11:53:17.305Z,30.04
2023-09-18T11:55:44.221Z,29.01
2023-09-18T11:58:10.988Z,29.48
2023-09-18T12:00:37.735Z,28.47
2023-09-18T12:03:15.130Z,29.45
2023-09-18T12:05:41.941Z,30.51
2023-09-18T12:08:08.731Z,32.02
2023-09-18T12:10:37.005Z,30.34
2023-09-18T12:13:07.015Z,30.92
2023-09-18T12:15:33.742Z,30.34
2023-09-18T12:18:06.530Z,30.97
2023-09-18T12:20:33.355Z,31.09
2023-09-18T12:23:00.100Z,31.27
2023-09-18T12:25:26.889Z,30.25
2023-09-18T12:27:55.021Z,29.94
2023-09-18T12:30:22.381Z,29.93
2023-09-18T12:32:51.738Z,29.79
2023-09-18T12:35:18.660Z,29.90
2023-09-18T12:37:45.690Z,30.49
2023-09-18T12:40:23.002Z,30.93
2023-09-18T12:42:49.820Z,29.38
2023-09-18T12:45:18.141Z,29.58
2023-09-18T12:47:45.040Z,28.94
2023-09-18T12:50:13.971Z,29.88
2023-09-18T12:52:40.833Z,30.66
2023-09-18T12:55:08.309Z,30.54
2023-09-18T12:57:35.046Z,30.07
2023-09-18T13:00:09.582Z,30.44
2023-09-18T13:02:37.835Z,31.03
2023-09-18T13:05:05.330Z,30.90
2023-09-18T13:07:32.050Z,30.20
2023-09-18T13:10:01.855Z,30.76
2023-09-18T13:12:40.588Z,31.86
2023-09-18T13:15:08.345Z,31.47
2023-09-18T13:17:40.822Z,31.85
2023-09-18T13:20:10.981Z,31.09
2023-09-18T13:22:38.192Z,29.90
2023-09-18T13:25:05.801Z,30.15
2023-09-18T13:27:32.597Z,30.65
2023-09-18T13:29:59.382Z,31.10
2023-09-18T13:32:26.354Z,30.32
2023-09-18T13:34:54.552Z,30.46
2023-09-18T13:37:21.299Z,30.97
2023-09-18T13:39:48.161Z,29.66
2023-09-18T13:42:14.884Z,29.21
2023-09-18T13:44:41.680Z,29.23
2023-09-18T13:47:08.709Z,29.40
2023-09-18T13:49:35.849Z,29.32
2023-09-18T13:52:04.294Z,29.07
2023-09-18T13:54:31.078Z,29.67
2023-09-18T13:56:58.507Z,30.00
2023-09-18T13:59:26.043Z,30.36
2023-09-18T14:01:52.888Z,29.56
2023-09-18T14:04:19.600Z,29.80
2023-09-18T14:06:46.337Z,29.36
2023-09-18T14:09:14.654Z,29.70
2023-09-18T14:11:41.394Z,29.65
2023-09-18T14:14:08.157Z,29.62
2023-09-18T14:16:34.928Z,29.19
2023-09-18T14:19:01.712Z,29.52
2023-09-18T14:21:28.459Z,29.21
2023-09-18T14:23:55.233Z,29.26
2023-09-18T14:26:23.465Z,29.02
2023-09-18T14:28:50.233Z,28.57
2023-09-18T14:31:17.069Z,29.01
2023-09-18T14:33:43.843Z,28.70
2023-09-18T14:36:10.558Z,28.42
2023-09-18T14:38:37.283Z,28.36
2023-09-18T14:41:04.196Z,28.49
2023-09-18T14:43:32.364Z,28.57
2023-09-18T14:45:59.177Z,28.53
2023-09-18T14:48:25.994Z,28.65
2023-09-18T14:50:54.779Z,28.98
2023-09-18T14:53:21.610Z,28.54
2023-09-18T14:55:48.365Z,28.95
2023-09-18T14:58:15.176Z,28.91
2023-09-18T15:00:43.357Z,28.81
2023-09-18T15:03:10.225Z,29.12
2023-09-18T15:05:37.093Z,28.65
2023-09-18T15:08:04.917Z,28.44
2023-09-18T15:10:31.679Z,28.53
2023-09-18T15:12:58.403Z,28.47
2023-09-18T15:15:25.164Z,28.23
2023-09-18T15:17:53.353Z,28.47
2023-09-18T15:20:20.214Z,28.37
2023-09-18T15:22:46.996Z,28.40
2023-09-18T15:25:13.783Z,28.13
2023-09-18T15:27:40.594Z,28.17
2023-09-18T15:30:08.353Z,28.19
2023-09-18T15:32:47.411Z,28.19
2023-09-18T15:35:15.693Z,28.17
2023-09-18T15:37:42.372Z,28.33
2023-09-18T15:40:10.049Z,28.09
2023-09-18T15:42:37.564Z,28.08
2023-09-18T15:45:05.244Z,28.15
2023-09-18T15:47:32.096Z,28.13
2023-09-18T15:49:58.855Z,27.89
2023-09-18T15:52:26.946Z,28.05
2023-09-18T15:54:53.639Z,27.86
2023-09-18T15:57:20.440Z,27.77
2023-09-18T15:59:47.185Z,27.71
2023-09-18T16:02:13.941Z,27.50
2023-09-18T16:04:40.863Z,27.44
2023-09-18T16:07:07.648Z,27.36
2023-09-18T16:09:35.731Z,27.20
2023-09-18T16:12:02.548Z,27.09
2023-09-18T16:14:29.446Z,27.04
2023-09-18T16:16:56.283Z,26.88
2023-09-18T16:19:24.055Z,26.78
2023-09-18T16:21:50.848Z,26.72
2023-09-18T16:24:17.614Z,26.59
2023-09-18T16:26:45.863Z,26.52
2023-09-18T16:29:12.627Z,26.38
2023-09-18T16:31:39.364Z,26.38
2023-09-18T16:34:06.187Z,26.34
2023-09-18T16:36:32.954Z,26.28
2023-09-18T16:38:59.787Z,26.20
2023-09-18T16:41:26.654Z,26.10
2023-09-18T16:43:54.852Z,25.94
2023-09-18T16:46:21.743Z,25.94
2023-09-18T16:48:48.510Z,25.82
2023-09-18T16:51:15.243Z,25.65
2023-09-18T16:53:42.120Z,25.55
2023-09-18T16:56:08.940Z,25.45
2023-09-18T16:58:36.129Z,25.45
2023-09-18T17:01:04.302Z,25.63
2023-09-18T17:03:31.341Z,25.50
2023-09-18T17:05:58.211Z,25.49
2023-09-18T17:08:26.265Z,25.52
2023-09-18T17:10:53.031Z,25.39
2023-09-18T17:13:19.737Z,25.19
2023-09-18T17:15:46.455Z,25.17
2023-09-18T17:18:14.770Z,25.12
2023-09-18T17:20:41.708Z,25.14
2023-09-18T17:23:08.437Z,25.06
2023-09-18T17:25:35.246Z,25.03
2023-09-18T17:28:20.972Z,24.86
2023-09-18T17:30:47.685Z,24.86
2023-09-18T17:33:15.790Z,25.06
2023-09-18T17:35:44.220Z,25.06
2023-09-18T17:38:10.935Z,24.97
2023-09-18T17:40:37.767Z,25.00
2023-09-18T17:43:04.673Z,24.98
2023-09-18T17:45:31.434Z,24.97
2023-09-18T17:47:58.231Z,24.84
2023-09-18T17:50:26.484Z,24.80
2023-09-18T17:52:53.241Z,24.84
2023-09-18T17:55:19.978Z,24.73
2023-09-18T17:57:46.772Z,24.76
2023-09-18T18:00:14.284Z,24.74
2023-09-18T18:02:41.504Z,24.73
2023-09-18T18:05:11.852Z,24.66
2023-09-18T18:07:40.206Z,24.52
2023-09-18T18:10:07.723Z,24.43
2023-09-18T18:12:34.499Z,24.43
2023-09-18T18:15:01.293Z,24.48
2023-09-18T18:17:28.848Z,24.39
2023-09-18T18:19:55.878Z,24.39
2023-09-18T18:22:22.688Z,24.33
2023-09-18T18:24:50.777Z,24.32
2023-09-18T18:27:17.482Z,24.26
2023-09-18T18:29:44.288Z,24.29
2023-09-18T18:32:11.065Z,24.28
2023-09-18T18:34:37.791Z,24.33
2023-09-18T18:37:04.577Z,24.42
2023-09-18T18:39:31.290Z,24.36
2023-09-18T18:41:59.461Z,24.22
2023-09-18T18:44:26.308Z,24.28
2023-09-18T18:46:53.100Z,24.21
2023-09-18T18:49:19.819Z,24.29
2023-09-18T18:51:46.570Z,24.19
2023-09-18T18:54:16.391Z,24.15
2023-09-18T18:56:43.154Z,24.04
2023-09-18T18:59:11.285Z,24.15
2023-09-18T19:01:38.024Z,23.94
2023-09-18T19:04:05.391Z,24.15
2023-09-18T19:06:32.224Z,24.02
2023-09-18T19:08:59.013Z,24.05
2023-09-18T19:11:25.758Z,24.05
2023-09-18T19:13:52.523Z,24.01
2023-09-18T19:16:21.124Z,24.05
2023-09-18T19:18:47.955Z,24.02
2023-09-18T19:21:14.768Z,24.01
2023-09-18T19:23:41.689Z,23.89
2023-09-18T19:26:08.631Z,24.05
2023-09-18T19:28:35.457Z,23.95
2023-09-18T19:31:02.260Z,23.88
2023-09-18T19:33:30.469Z,23.94
2023-09-18T19:35:57.348Z,23.82
2023-09-18T19:38:24.222Z,24.01
2023-09-18T19:40:51.397Z,23.89
2023-09-18T19:43:18.163Z,23.81
2023-09-18T19:45:45.145Z,23.81
2023-09-18T19:48:12.002Z,23.79
2023-09-18T19:50:40.271Z,23.68
2023-09-18T19:53:07.013Z,23.77
2023-09-18T19:55:33.759Z,23.60
2023-09-18T19:58:00.822Z,23.60
2023-09-18T20:00:27.682Z,23.64
2023-09-18T20:02:54.664Z,23.71
2023-09-18T20:05:21.642Z,23.81
2023-09-18T20:07:49.761Z,23.82
2023-09-18T20:10:16.543Z,23.73
2023-09-18T20:12:43.782Z,23.77
2023-09-18T20:15:10.950Z,23.91
2023-09-18T20:17:37.746Z,23.92
2023-09-18T20:20:05.955Z,23.92
2023-09-18T20:22:32.727Z,24.02
2023-09-18T20:25:00.934Z,24.11
2023-09-18T20:27:33.756Z,24.15
2023-09-18T20:30:00.783Z,24.09
2023-09-18T20:32:27.645Z,24.09
2023-09-18T20:34:54.360Z,24.08
2023-09-18T20:37:21.151Z,24.15
2023-09-18T20:39:47.908Z,24.06
2023-09-18T20:42:15.991Z,24.06
2023-09-18T20:44:42.730Z,24.12
2023-09-18T20:47:09.614Z,24.19
2023-09-18T20:49:36.331Z,24.43
2023-09-18T20:52:03.049Z,24.40
2023-09-18T20:54:29.757Z,24.36
2023-09-18T20:56:56.498Z,24.46
2023-09-18T20:59:25.950Z,24.43
2023-09-18T21:01:52.753Z,24.36
2023-09-18T21:04:19.709Z,24.50
2023-09-18T21:06:46.504Z,24.44
2023-09-18T21:09:13.285Z,24.42
2023-09-18T21:11:40.086Z,24.37
2023-09-18T21:14:06.806Z,24.32
2023-09-18T21:16:34.977Z,24.30
2023-09-18T21:19:01.706Z,24.22
2023-09-18T21:21:28.459Z,24.19
2023-09-18T21:23:55.274Z,24.06
2023-09-18T21:26:22.007Z,24.04
2023-09-18T21:28:48.759Z,24.02
2023-09-18T21:31:15.496Z,24.04
2023-09-18T21:33:43.785Z,23.95
2023-09-18T21:36:14.195Z,23.97
2023-09-18T21:38:41.645Z,23.91
2023-09-18T21:41:08.364Z,23.97
2023-09-18T21:43:35.061Z,23.97
2023-09-18T21:46:02.128Z,24.00
2023-09-18T21:48:28.976Z,23.84
2023-09-18T21:50:57.224Z,23.86
2023-09-18T21:53:24.062Z,23.82
2023-09-18T21:55:50.767Z,23.75
2023-09-18T21:58:17.506Z,23.73
2023-09-18T22:00:44.351Z,23.70
2023-09-18T22:03:11.180Z,23.67
2023-09-18T22:05:39.432Z,23.67
2023-09-18T22:08:07.801Z,23.68
2023-09-18T22:10:34.520Z,23.61
2023-09-18T22:13:01.443Z,23.65
2023-09-18T22:15:28.342Z,23.58
2023-09-18T22:17:55.180Z,23.57
2023-09-18T22:20:21.942Z,23.49
2023-09-18T22:22:48.683Z,23.44
2023-09-18T22:25:16.946Z,23.43
2023-09-18T22:27:43.650Z,23.43
2023-09-18T22:30:11.065Z,23.39
2023-09-18T22:32:37.892Z,23.36
2023-09-18T22:35:05.234Z,23.31
2023-09-18T22:37:31.997Z,23.34
2023-09-18T22:40:05.041Z,23.27
2023-09-18T22:43:09.259Z,23.17
2023-09-18T22:46:13.318Z,23.22
2023-09-18T22:49:17.255Z,23.19
2023-09-18T22:52:21.432Z,23.12
2023-09-18T22:54:51.069Z,23.06
2023-09-18T22:57:17.911Z,23.00
2023-09-18T22:59:44.710Z,23.02
2023-09-18T23:02:11.714Z,22.94
2023-09-18T23:04:38.572Z,22.95
2023-09-18T23:07:05.590Z,22.85
2023-09-18T23:09:32.344Z,22.71
2023-09-18T23:12:00.437Z,22.68
2023-09-18T23:14:27.254Z,22.76
2023-09-18T23:17:03.437Z,22.69
2023-09-18T23:19:30.236Z,22.58
2023-09-18T23:21:56.959Z,22.45
2023-09-18T23:24:23.706Z,22.47
2023-09-18T23:26:50.407Z,22.43
2023-09-18T23:29:18.506Z,22.43
2023-09-18T23:31:45.313Z,22.33
2023-09-18T23:34:12.307Z,22.25
2023-09-18T23:36:39.038Z,22.31
2023-09-18T23:39:05.781Z,22.30
2023-09-18T23:41:46.184Z,22.34
2023-09-18T23:44:20.592Z,22.38
2023-09-18T23:46:47.657Z,22.41
2023-09-18T23:49:14.472Z,22.34
2023-09-18T23:51:41.208Z,22.33
2023-09-18T23:54:08.122Z,22.25
2023-09-18T23:56:34.862Z,22.20
2023-09-18T23:59:01.612Z,22.34
